createdAt,value
2018-08-04T00:01:12.323Z,5.60
2018-08-04T00:03:41.938Z,5.67
2018-08-04T00:06:12.842Z,5.03
2018-08-04T00:08:43.015Z,5.30
2018-08-04T00:11:17.797Z,5.97
2018-08-04T00:13:47.561Z,5.17
2018-08-04T00:16:21.677Z,5.90
2018-08-04T00:18:51.387Z,5.60
2018-08-04T00:21:21.011Z,5.47
2018-08-04T00:23:51.254Z,5.60
2018-08-04T00:26:21.956Z,5.43
2018-08-04T00:28:51.214Z,5.67
2018-08-04T00:31:21.297Z,5.20
2018-08-04T00:33:50.909Z,5.53
2018-08-04T00:36:22.307Z,5.67
2018-08-04T00:38:51.989Z,5.77
2018-08-04T00:41:21.694Z,5.60
2018-08-04T00:43:52.326Z,5.70
2018-08-04T00:46:22.727Z,5.60
2018-08-04T00:48:53.829Z,5.60
2018-08-04T00:51:24.170Z,6.00
2018-08-04T00:53:53.685Z,5.20
2018-08-04T00:56:27.295Z,5.20
2018-08-04T00:58:59.720Z,5.57
2018-08-04T01:01:30.724Z,5.13
2018-08-04T01:04:00.315Z,5.70
2018-08-04T01:06:38.633Z,5.43
2018-08-04T01:09:10.840Z,5.97
2018-08-04T01:11:41.033Z,5.60
2018-08-04T01:14:10.808Z,5.60
2018-08-04T01:16:41.933Z,5.90
2018-08-04T01:19:13.284Z,5.50
2018-08-04T01:21:43.287Z,5.90
2018-08-04T01:24:14.130Z,5.73
2018-08-04T01:26:43.946Z,5.70
2018-08-04T01:29:13.262Z,6.10
2018-08-04T01:31:42.726Z,5.67
2018-08-04T01:34:12.923Z,5.57
2018-08-04T01:36:53.396Z,5.73
2018-08-04T01:39:23.592Z,5.80
2018-08-04T01:41:52.898Z,5.83
2018-08-04T01:44:22.202Z,5.57
2018-08-04T01:47:03.636Z,5.27
2018-08-04T01:49:33.410Z,5.17
2018-08-04T01:52:03.708Z,5.37
2018-08-04T01:54:34.034Z,6.03
2018-08-04T01:57:04.772Z,5.70
2018-08-04T01:59:34.382Z,5.77
2018-08-04T02:02:04.048Z,5.13
2018-08-04T02:04:37.112Z,5.80
2018-08-04T02:07:08.195Z,5.70
2018-08-04T02:09:37.810Z,6.13
2018-08-04T02:12:08.464Z,5.93
2018-08-04T02:14:38.628Z,5.60
2018-08-04T02:17:14.346Z,5.97
2018-08-04T02:19:44.216Z,5.53
2018-08-04T02:22:14.215Z,5.30
2018-08-04T02:24:44.875Z,5.00
2018-08-04T02:27:16.246Z,6.30
2018-08-04T02:29:46.359Z,6.17
2018-08-04T02:32:16.532Z,5.87
2018-08-04T02:34:46.544Z,5.33
2018-08-04T02:37:25.914Z,5.67
2018-08-04T02:39:55.770Z,5.57
2018-08-04T02:42:25.542Z,5.87
2018-08-04T02:44:55.824Z,5.83
2018-08-04T02:47:26.259Z,5.37
2018-08-04T02:49:57.022Z,5.87
2018-08-04T02:52:27.274Z,5.47
2018-08-04T02:54:56.880Z,5.60
2018-08-04T02:57:27.628Z,5.67
2018-08-04T02:59:58.135Z,5.67
2018-08-04T03:02:29.150Z,5.63
2018-08-04T03:04:58.775Z,5.63
2018-08-04T03:07:31.609Z,6.00
2018-08-04T03:10:01.357Z,6.07
2018-08-04T03:12:32.078Z,6.40
2018-08-04T03:15:03.090Z,5.93
2018-08-04T03:17:36.157Z,6.30
2018-08-04T03:20:07.133Z,5.90
2018-08-04T03:22:37.082Z,6.10
2018-08-04T03:25:08.436Z,5.73
2018-08-04T03:27:39.655Z,5.90
2018-08-04T03:30:10.661Z,6.00
2018-08-04T03:32:41.700Z,5.70
2018-08-04T03:35:11.619Z,5.90
2018-08-04T03:37:42.709Z,5.73
2018-08-04T03:40:12.786Z,6.10
2018-08-04T03:42:42.533Z,6.37
2018-08-04T03:45:13.122Z,6.33
2018-08-04T03:47:47.108Z,5.90
2018-08-04T03:50:16.384Z,6.00
2018-08-04T03:52:47.435Z,6.33
2018-08-04T03:55:17.273Z,5.70
2018-08-04T03:57:48.377Z,5.80
2018-08-04T04:00:19.039Z,5.93
2018-08-04T04:02:50.008Z,6.40
2018-08-04T04:05:20.662Z,5.63
2018-08-04T04:07:51.199Z,6.10
2018-08-04T04:10:21.011Z,6.27
2018-08-04T04:12:50.850Z,6.03
2018-08-04T04:15:21.685Z,5.70
2018-08-04T04:17:58.533Z,5.67
2018-08-04T04:20:28.581Z,6.27
2018-08-04T04:22:58.191Z,6.10
2018-08-04T04:25:28.526Z,6.03
2018-08-04T04:28:05.646Z,6.50
2018-08-04T04:30:35.778Z,6.50
2018-08-04T04:33:05.637Z,5.90
2018-08-04T04:35:35.282Z,5.93
2018-08-04T04:38:04.971Z,6.00
2018-08-04T04:40:34.764Z,5.93
2018-08-04T04:43:05.426Z,6.17
2018-08-04T04:45:36.067Z,6.20
2018-08-04T04:48:13.161Z,6.47
2018-08-04T04:50:43.305Z,6.50
2018-08-04T04:53:13.535Z,6.40
2018-08-04T04:55:42.929Z,6.33
2018-08-04T04:58:14.962Z,6.27
2018-08-04T05:00:44.894Z,6.07
2018-08-04T05:03:15.285Z,6.80
2018-08-04T05:05:44.566Z,6.13
2018-08-04T05:08:14.710Z,6.60
2018-08-04T05:10:45.332Z,6.20
2018-08-04T05:13:16.044Z,6.40
2018-08-04T05:15:47.409Z,6.10
2018-08-04T05:18:18.829Z,6.50
2018-08-04T05:20:49.774Z,6.27
2018-08-04T05:23:20.540Z,6.90
2018-08-04T05:25:51.346Z,5.93
2018-08-04T05:28:23.135Z,6.23
2018-08-04T05:30:52.984Z,6.60
2018-08-04T05:33:23.668Z,6.20
2018-08-04T05:35:55.322Z,6.53
2018-08-04T05:38:26.700Z,6.10
2018-08-04T05:40:56.691Z,6.47
2018-08-04T05:43:26.134Z,5.80
2018-08-04T05:45:55.956Z,5.97
2018-08-04T05:48:27.254Z,5.67
2018-08-04T05:50:56.935Z,5.70
2018-08-04T05:53:27.137Z,6.33
2018-08-04T05:55:58.241Z,6.20
2018-08-04T05:58:29.388Z,6.50
2018-08-04T06:00:58.707Z,5.90
2018-08-04T06:03:29.546Z,6.20
2018-08-04T06:05:58.970Z,5.30
2018-08-04T06:08:29.074Z,5.47
2018-08-04T06:10:58.726Z,6.63
2018-08-04T06:13:28.142Z,5.97
2018-08-04T06:15:57.790Z,5.93
2018-08-04T06:18:38.503Z,6.10
2018-08-04T06:21:08.072Z,5.70
2018-08-04T06:23:37.998Z,5.90
2018-08-04T06:26:07.465Z,6.30
2018-08-04T06:28:37.103Z,6.67
2018-08-04T06:31:07.413Z,6.37
2018-08-04T06:33:38.056Z,6.50
2018-08-04T06:36:09.030Z,6.83
2018-08-04T06:38:42.900Z,6.97
2018-08-04T06:41:12.256Z,6.57
2018-08-04T06:43:42.353Z,6.43
2018-08-04T06:46:12.061Z,5.97
2018-08-04T06:48:41.357Z,5.77
2018-08-04T06:51:10.711Z,6.13
2018-08-04T06:53:40.889Z,5.83
2018-08-04T06:56:10.754Z,6.57
2018-08-04T06:58:40.921Z,6.53
2018-08-04T07:01:10.257Z,5.83
2018-08-04T07:03:39.937Z,5.67
2018-08-04T07:06:10.554Z,5.90
2018-08-04T07:09:02.611Z,6.53
2018-08-04T07:11:32.268Z,5.67
2018-08-04T07:14:02.114Z,5.60
2018-08-04T07:16:32.458Z,6.00
2018-08-04T07:19:02.178Z,5.73
2018-08-04T07:21:31.784Z,6.13
2018-08-04T07:24:01.394Z,6.60
2018-08-04T07:26:31.606Z,5.87
2018-08-04T07:29:01.385Z,5.80
2018-08-04T07:31:31.437Z,6.00
2018-08-04T07:34:00.746Z,5.70
2018-08-04T07:36:30.310Z,6.20
2018-08-04T07:39:01.350Z,6.33
2018-08-04T07:41:30.694Z,6.03
2018-08-04T07:44:00.850Z,5.80
2018-08-04T07:46:30.972Z,6.10
2018-08-04T07:49:01.928Z,6.43
2018-08-04T07:51:32.107Z,5.57
2018-08-04T07:54:02.407Z,5.90
2018-08-04T07:56:32.089Z,6.27
2018-08-04T07:59:03.850Z,6.00
2018-08-04T08:01:33.200Z,5.90
2018-08-04T08:04:03.508Z,5.43
2018-08-04T08:06:33.388Z,6.30
2018-08-04T08:09:04.993Z,6.50
2018-08-04T08:11:34.434Z,6.63
2018-08-04T08:14:04.986Z,5.63
2018-08-04T08:16:34.838Z,6.20
2018-08-04T08:19:12.107Z,6.10
2018-08-04T08:21:41.466Z,5.67
2018-08-04T08:24:10.653Z,6.50
2018-08-04T08:26:40.680Z,6.20
2018-08-04T08:29:12.291Z,6.80
2018-08-04T08:31:42.768Z,6.97
2018-08-04T08:34:13.239Z,6.70
2018-08-04T08:36:42.956Z,6.57
2018-08-04T08:39:31.570Z,7.10
2018-08-04T08:42:02.396Z,6.37
2018-08-04T08:44:32.673Z,6.87
2018-08-04T08:47:02.869Z,6.57
2018-08-04T08:49:32.769Z,6.70
2018-08-04T08:52:02.077Z,6.60
2018-08-04T08:54:31.986Z,7.10
2018-08-04T08:57:01.685Z,7.97
2018-08-04T08:59:37.455Z,7.67
2018-08-04T09:02:07.282Z,7.00
2018-08-04T09:04:37.171Z,6.43
2018-08-04T09:07:06.500Z,7.47
2018-08-04T09:09:36.811Z,7.43
2018-08-04T09:12:07.828Z,7.57
2018-08-04T09:14:37.742Z,8.63
2018-08-04T09:17:07.069Z,7.63
2018-08-04T09:19:39.070Z,7.50
2018-08-04T09:22:10.022Z,8.30
2018-08-04T09:24:40.375Z,7.47
2018-08-04T09:27:10.361Z,7.87
2018-08-04T09:29:48.221Z,8.10
2018-08-04T09:32:29.863Z,8.70
2018-08-04T09:35:18.885Z,9.00
2018-08-04T09:53:38.465Z,10.07
2018-08-04T09:59:12.100Z,9.30
2018-08-04T10:01:41.816Z,9.73
2018-08-04T10:04:11.361Z,9.97
2018-08-04T10:06:42.283Z,9.70
2018-08-04T10:09:13.456Z,9.57
2018-08-04T10:11:43.673Z,10.50
2018-08-04T10:14:13.451Z,9.53
2018-08-04T10:16:43.542Z,10.23
2018-08-04T10:19:13.456Z,9.97
2018-08-04T10:40:24.743Z,10.67
2018-08-04T10:42:59.749Z,10.90
2018-08-04T10:51:36.566Z,11.20
2018-08-04T11:22:23.244Z,9.83
2018-08-04T11:24:53.114Z,10.53
2018-08-04T11:58:28.227Z,11.57
2018-08-04T12:04:20.181Z,11.40
2018-08-04T12:06:50.796Z,13.10
2018-08-04T12:34:30.612Z,9.53
2018-08-04T12:37:00.366Z,11.83
2018-08-04T12:39:30.256Z,11.13
2018-08-04T12:42:00.264Z,10.60
2018-08-04T12:44:36.358Z,10.17
2018-08-04T12:47:06.722Z,9.93
2018-08-04T12:49:37.050Z,8.80
2018-08-04T12:52:06.406Z,9.23
2018-08-04T12:54:53.618Z,7.83
2018-08-04T12:57:22.926Z,7.67
2018-08-04T12:59:53.116Z,8.37
2018-08-04T13:02:23.436Z,7.37
2018-08-04T13:07:32.885Z,7.70
2018-08-04T13:10:03.116Z,7.47
2018-08-04T13:12:33.411Z,7.20
2018-08-04T13:15:16.792Z,6.83
2018-08-04T13:17:46.125Z,7.03
2018-08-04T13:20:16.503Z,6.83
2018-08-04T13:26:00.527Z,7.00
2018-08-04T13:28:30.065Z,6.57
2018-08-04T13:30:59.891Z,6.83
2018-08-04T13:36:45.833Z,6.00
2018-08-04T13:42:36.563Z,5.87
2018-08-04T13:45:06.277Z,4.97
2018-08-04T14:47:35.736Z,5.17
2018-08-04T14:50:06.933Z,4.50
2018-08-04T14:52:40.671Z,4.40
2018-08-04T14:55:13.019Z,4.90
2018-08-04T14:57:42.923Z,4.30
2018-08-04T15:00:21.983Z,4.87
2018-08-04T15:02:52.434Z,4.67
2018-08-04T15:05:22.091Z,4.97
2018-08-04T15:07:51.595Z,4.97
2018-08-04T15:10:36.481Z,5.03
2018-08-04T15:13:07.337Z,5.00
2018-08-04T15:15:37.002Z,4.97
2018-08-04T15:18:06.582Z,5.27
2018-08-04T15:20:36.606Z,5.07
2018-08-04T15:23:06.164Z,4.97
2018-08-04T15:25:35.495Z,5.07
2018-08-04T15:28:05.788Z,5.00
2018-08-04T15:30:36.068Z,4.77
2018-08-04T15:33:05.655Z,5.27
2018-08-04T15:35:41.435Z,5.50
2018-08-04T15:38:12.464Z,5.13
2018-08-04T15:40:43.990Z,5.97
2018-08-04T15:43:13.530Z,5.77
2018-08-04T15:45:43.579Z,5.00
2018-08-04T15:48:16.475Z,5.73
2018-08-04T15:51:00.733Z,5.77
2018-08-04T15:53:30.065Z,5.33
2018-08-04T15:56:01.330Z,5.70
2018-08-04T15:58:31.834Z,6.40
2018-08-04T16:01:10.838Z,6.50
2018-08-04T16:03:40.270Z,5.63
2018-08-04T16:06:09.631Z,6.50
2018-08-04T16:08:39.827Z,5.83
2018-08-04T16:11:09.512Z,5.63
2018-08-04T16:16:40.502Z,6.00
2018-08-04T16:19:10.846Z,6.03
2018-08-04T16:21:40.507Z,6.37
2018-08-04T16:24:12.102Z,5.90
2018-08-04T16:26:54.195Z,5.40
2018-08-04T16:29:24.420Z,5.60
2018-08-04T16:31:55.583Z,5.90
2018-08-04T16:34:25.752Z,5.37
2018-08-04T16:36:56.274Z,6.03
2018-08-04T16:39:26.195Z,5.67
2018-08-04T16:41:59.358Z,5.83
2018-08-04T16:44:29.802Z,5.20
2018-08-04T16:47:02.148Z,5.37
2018-08-04T16:49:31.913Z,5.80
2018-08-04T16:52:02.023Z,5.80
2018-08-04T16:54:31.772Z,5.50
2018-08-04T16:57:03.810Z,5.73
2018-08-04T16:59:33.785Z,4.80
2018-08-04T17:02:03.080Z,5.23
2018-08-04T17:04:32.682Z,5.77
2018-08-04T17:07:04.393Z,4.87
2018-08-04T17:09:33.748Z,5.27
2018-08-04T17:12:04.547Z,5.60
2018-08-04T17:14:35.901Z,4.90
2018-08-04T17:17:21.742Z,5.20
2018-08-04T17:19:52.594Z,4.83
2018-08-04T17:22:22.934Z,5.00
2018-08-04T17:24:52.343Z,4.93
2018-08-04T17:27:24.421Z,5.13
2018-08-04T17:29:55.345Z,4.87
2018-08-04T17:32:25.799Z,5.10
2018-08-04T17:34:56.903Z,4.70
2018-08-04T17:37:28.047Z,5.33
2018-08-04T17:39:57.327Z,4.90
2018-08-04T17:42:27.241Z,5.13
2018-08-04T17:44:57.611Z,4.97
2018-08-04T17:47:28.359Z,5.40
2018-08-04T17:49:58.634Z,5.10
2018-08-04T17:52:28.528Z,4.83
2018-08-04T17:54:57.945Z,4.87
2018-08-04T17:57:36.871Z,5.00
2018-08-04T18:00:06.831Z,5.13
2018-08-04T18:02:36.688Z,4.47
2018-08-04T18:05:06.823Z,5.27
2018-08-04T18:07:40.528Z,5.07
2018-08-04T18:10:11.589Z,4.97
2018-08-04T18:12:41.485Z,4.90
2018-08-04T18:15:11.171Z,5.10
2018-08-04T18:17:52.810Z,5.10
2018-08-04T18:20:23.918Z,4.63
2018-08-04T18:22:54.018Z,5.07
2018-08-04T18:25:23.805Z,5.07
2018-08-04T18:27:53.518Z,4.87
2018-08-04T18:30:24.857Z,4.13
2018-08-04T18:32:55.441Z,4.93
2018-08-04T18:35:25.276Z,4.77
2018-08-04T18:38:01.899Z,4.97
2018-08-04T18:40:33.066Z,5.40
2018-08-04T18:43:03.217Z,5.10
2018-08-04T18:45:34.922Z,5.00
2018-08-04T18:48:12.012Z,5.50
2018-08-04T18:50:42.472Z,4.97
2018-08-04T18:53:12.996Z,5.13
2018-08-04T18:55:42.817Z,5.43
2018-08-04T18:58:29.504Z,4.60
2018-08-04T19:00:59.774Z,5.50
2018-08-04T19:03:30.567Z,5.13
2018-08-04T19:06:00.930Z,4.53
2018-08-04T19:08:35.651Z,5.07
2018-08-04T19:11:05.628Z,6.30
2018-08-04T19:13:35.464Z,5.90
2018-08-04T19:16:05.040Z,5.80
2018-08-04T19:18:35.480Z,6.07
2018-08-04T19:21:05.253Z,5.60
2018-08-04T19:23:36.077Z,5.53
2018-08-04T19:26:05.930Z,6.07
2018-08-04T19:28:36.110Z,6.13
2018-08-04T19:31:05.919Z,6.90
2018-08-04T19:33:35.379Z,6.27
2018-08-04T19:36:05.837Z,6.07
2018-08-04T19:38:35.562Z,5.90
2018-08-04T19:41:04.908Z,6.03
2018-08-04T19:43:34.474Z,6.27
2018-08-04T19:46:05.025Z,6.40
2018-08-04T19:48:34.459Z,6.40
2018-08-04T19:51:04.239Z,6.60
2018-08-04T19:53:33.973Z,6.80
2018-08-04T19:56:03.865Z,6.83
2018-08-04T19:58:47.582Z,6.23
2018-08-04T20:01:17.015Z,6.47
2018-08-04T20:03:47.955Z,5.87
2018-08-04T20:06:18.271Z,6.50
2018-08-04T20:08:47.811Z,6.87
2018-08-04T20:11:19.699Z,6.57
2018-08-04T20:13:49.584Z,6.27
2018-08-04T20:16:20.915Z,6.23
2018-08-04T20:18:50.944Z,6.40
2018-08-04T20:21:28.533Z,5.97
2018-08-04T20:23:58.579Z,6.30
2018-08-04T20:29:32.591Z,5.90
2018-08-04T20:32:03.053Z,5.77
2018-08-04T20:34:33.233Z,6.30
2018-08-04T20:37:04.382Z,5.73
2018-08-04T20:39:46.432Z,6.07
2018-08-04T20:42:17.987Z,5.27
2018-08-04T20:44:48.168Z,5.30
2018-08-04T20:47:18.580Z,5.27
2018-08-04T20:49:53.838Z,4.90
2018-08-04T20:52:23.828Z,4.80
2018-08-04T20:54:54.253Z,4.73
2018-08-04T20:57:25.133Z,4.50
2018-08-04T20:59:55.532Z,4.80
2018-08-04T21:02:25.112Z,4.70
2018-08-04T21:04:56.357Z,4.73
2018-08-04T21:07:27.128Z,4.33
2018-08-04T21:09:57.782Z,4.20
2018-08-04T21:12:28.433Z,4.50
2018-08-04T21:14:58.671Z,3.90
2018-08-04T21:17:28.575Z,3.90
2018-08-04T21:20:00.923Z,3.97
2018-08-04T21:22:31.170Z,3.80
2018-08-04T21:25:00.840Z,3.63
2018-08-04T21:27:30.522Z,3.87
2018-08-04T21:30:14.833Z,3.90
2018-08-04T21:32:45.731Z,3.67
2018-08-04T21:35:17.386Z,4.17
2018-08-04T21:37:47.285Z,3.37
2018-08-04T21:40:18.091Z,3.50
2018-08-04T21:42:48.053Z,3.60
2018-08-04T21:45:17.657Z,3.30
2018-08-04T21:47:47.390Z,3.50
2018-08-04T21:50:20.255Z,3.30
2018-08-04T21:52:52.041Z,3.03
2018-08-04T21:55:22.338Z,3.30
2018-08-04T21:57:51.366Z,3.30
2018-08-04T22:00:22.209Z,3.40
2018-08-04T22:03:02.689Z,3.10
2018-08-04T22:05:33.348Z,3.37
2018-08-04T22:10:15.920Z,3.00
2018-08-04T22:12:45.690Z,3.00
2018-08-04T22:15:16.363Z,3.17
2018-08-04T22:17:46.676Z,2.80
2018-08-04T22:20:20.535Z,3.00
2018-08-04T22:22:50.578Z,2.97
2018-08-04T22:25:24.143Z,2.80
2018-08-04T22:27:54.716Z,2.80
2018-08-04T22:30:26.527Z,2.50
2018-08-04T22:32:56.280Z,2.70
2018-08-04T22:35:25.906Z,3.20
2018-08-04T22:37:56.190Z,3.00
2018-08-04T22:40:39.162Z,2.20
2018-08-04T22:43:08.474Z,2.10
2018-08-04T22:46:00.066Z,2.77
2018-08-04T22:48:29.828Z,2.50
2018-08-04T22:51:01.574Z,2.60
2018-08-04T22:53:32.175Z,2.40
2018-08-04T22:56:02.013Z,2.40
2018-08-04T22:58:31.884Z,2.93
2018-08-04T23:01:02.698Z,2.83
2018-08-04T23:03:31.997Z,2.37
2018-08-04T23:06:02.122Z,2.90
2018-08-04T23:08:31.686Z,2.63
2018-08-04T23:11:01.619Z,2.83
2018-08-04T23:13:31.741Z,2.43
2018-08-04T23:16:01.501Z,2.30
2018-08-04T23:18:31.592Z,2.20
2018-08-04T23:21:07.870Z,2.20
2018-08-04T23:23:43.320Z,2.23
2018-08-04T23:26:12.893Z,2.50
2018-08-04T23:28:43.077Z,2.20
2018-08-04T23:31:14.846Z,2.37
2018-08-04T23:33:44.518Z,2.30
2018-08-04T23:36:14.237Z,2.43
2018-08-04T23:38:44.185Z,2.03
2018-08-04T23:41:24.494Z,2.57
2018-08-04T23:43:54.934Z,2.57
2018-08-04T23:46:25.166Z,2.30
2018-08-04T23:48:54.832Z,2.17
2018-08-04T23:51:26.524Z,2.50
2018-08-04T23:53:55.855Z,2.23
2018-08-04T23:56:25.414Z,1.90
2018-08-04T23:58:55.646Z,2.10
